メインページ
METAR-TAF:

METAR-TAF

空港 :

ポートモレスビー, パプアニューギニア

ポートモレスビー・ジャクソン国際空港

緯度: 09-26S, 経度: 147-13E, 海抜: 38m

現時点の気象観測

当レポートは3時間39分前の07:00(UTC)に作成
南/南西の風 6kt
気温 32°C
湿度 67%
気圧 1005 hPa
視程10km以上
高度3000ftの雲は散在している

METAR: AYPY 230700Z 21006KT 9999 SCT030 32/25 Q1005 RMKS/ B/UPS FM NW TO THE E

時間: 20:39 (10:39 UTC)

予報

当レポートは6時間37分前の04:02(UTC)に作成
予報は23日の 06時(UTC)から 24日の 06時(UTC)まで有効
の風 7kt
視程10km以上
高度1800ftの雲は散在している
高度3000ftの雲は散在している
高度12000ftの千切れ雲あり
弱いにわか雨
23日の 1100時(UTC)から
変向風 3kt
視程: 1007m
高度3000ftの雲は散在している
高度13000ftの千切れ雲あり
高度800ftの千切れ雲あり
高度1800ftの雲はほとんどない, 積乱雲.
激しい雷雨, 雨

TAF: AYPY 230402Z 2306/2406 18007KT 9999 -SHRA SCT018 SCT030 BKN120 FM231100 VRB03KT 9999 SCT030 BKN130 INTER 2306/2310 4000 TSRA BKN008 FEW018CB T 30 28 26 25 Q 1005 1006 1008 1007

4,000以上の空港の気象観測と天気予報(METAR報とTAF報)

利用可能な観測所は地図上に黄色い丸と赤い丸で示す。

丸の上にカーソルを重ねると観測所名を参照できる。

次にクリックすると気象観測と天気予報を参照できる。

マップの切り替え:黒色「×」印の緑ボタンをクリックして拡大、「-」印の緑ボタンをクリックして縮小、緑色の三角印をクリックして隣りの地図に切り替え


METAR-TAF: